Darstellungsparameter: Aktuell verwendete Einstellungen:
Skalierung der Graphiken ... ?
xyx+y,   Skalierungsfaktor:      Skalierung: Modus: x, Faktor: 1
Darstellungszeitraum ... ?
Vom - - bis: - -   Zeitraum: 20.02.2016 - 20.02.2016
Min/Max/Avg-Anzeige ... ?
Zeige MMA aktuell
Zeige MMA Monat
Zeige MMA alles
Zeige --A aktuell
Zeige --A Monat
Zeige --A alles
Keine MMA-Anzeige
MMA:
Keine MMA-Graphiken
MMA-Basis: 20.02.2016 - 20.02.2016
Quicknavigation für Darstellung... ?
Tage:      1T, 2T, 3T, 5T -1T -2T -3T -5T +1T +2T +3T +5T
Wochen: 1W, 2W, 3W -1W -2W -3W +1W +2W +3W
Monate: 1M, 3M, 6M -1M -3M -6M +1M +3M +6M
Jahre:    1J, 3J, 5J, 10J -1J -3J -5J -10J +1J +3J +5J +10J
Nutze für die Darstellung ... ?
Originaldaten oder Mittelwerte auf ...
Stundenbasis Tagesbasis Wochenbasis
Monatsbasis Jahresbasis      Datenbasis: Original-Daten
Darstellen als:
Statistik (Auto) Statistik J:M      Darstellung:
Zur Graphik,    zurück zur Übersicht aller Sensoren.
 
Tabellarische Datenbersicht: ?
 
Sensor: Nr:Datum:Temp:Feuchte:Taupunkt:
Aussen-T/F 1 20-02-2016 00:00:00 -0.4 C 96 % -0.96 C
2 20-02-2016 00:05:00 -0.4 C 96 % -0.96 C
3 20-02-2016 00:10:00 -0.3 C 96 % -0.86 C
4 20-02-2016 00:15:00 -0.2 C 96 % -0.76 C
5 20-02-2016 00:20:00 -0.1 C 96 % -0.66 C
6 20-02-2016 00:25:00 0.2 C 96 % -0.36 C
7 20-02-2016 00:30:00 0.3 C 97 % -0.12 C
8 20-02-2016 00:35:00 0.4 C 96 % -0.16 C
9 20-02-2016 00:40:00 0.5 C 96 % -0.06 C
10 20-02-2016 00:45:00 0.6 C 97 % 0.18 C
11 20-02-2016 00:50:00 0.7 C 96 % 0.14 C
12 20-02-2016 00:55:00 0.8 C 96 % 0.24 C
13 20-02-2016 01:00:00 0.8 C 96 % 0.24 C
14 20-02-2016 01:05:00 0.8 C 96 % 0.24 C
15 20-02-2016 01:10:00 0.9 C 97 % 0.48 C
16 20-02-2016 01:15:00 1 C 97 % 0.58 C
17 20-02-2016 01:20:00 1.1 C 96 % 0.54 C
18 20-02-2016 01:25:00 1.2 C 96 % 0.63 C
19 20-02-2016 01:30:00 1.2 C 97 % 0.78 C
20 20-02-2016 01:35:00 1.3 C 97 % 0.88 C
21 20-02-2016 01:40:00 1.4 C 97 % 0.98 C
22 20-02-2016 01:45:00 1.5 C 96 % 0.93 C
23 20-02-2016 01:50:00 1.6 C 96 % 1.03 C
24 20-02-2016 01:55:00 1.6 C 97 % 1.18 C
25 20-02-2016 02:00:00 1.6 C 96 % 1.03 C
Sensor: Nr:Datum:Temp:Feuchte:Taupunkt:
Aussen-T/F 26 20-02-2016 02:05:00 1.8 C 96 % 1.23 C
27 20-02-2016 02:10:00 1.8 C 96 % 1.23 C
28 20-02-2016 02:15:00 1.8 C 96 % 1.23 C
29 20-02-2016 02:20:00 1.8 C 96 % 1.23 C
30 20-02-2016 02:25:00 1.8 C 96 % 1.23 C
31 20-02-2016 02:30:00 1.9 C 96 % 1.33 C
32 20-02-2016 02:35:00 1.9 C 96 % 1.33 C
33 20-02-2016 02:40:00 1.9 C 96 % 1.33 C
34 20-02-2016 02:45:00 2.1 C 96 % 1.53 C
35 20-02-2016 02:50:00 2.2 C 96 % 1.63 C
36 20-02-2016 02:55:00 2.2 C 96 % 1.63 C
37 20-02-2016 03:00:00 2.4 C 95 % 1.68 C
38 20-02-2016 03:05:00 2.6 C 95 % 1.88 C
39 20-02-2016 03:10:00 2.6 C 95 % 1.88 C
40 20-02-2016 03:15:00 2.7 C 94 % 1.83 C
41 20-02-2016 03:20:00 2.7 C 94 % 1.83 C
42 20-02-2016 03:25:00 2.8 C 94 % 1.93 C
43 20-02-2016 03:30:00 3.1 C 93 % 2.08 C
44 20-02-2016 03:35:00 3.2 C 92 % 2.03 C
45 20-02-2016 03:40:00 3.2 C 92 % 2.03 C
46 20-02-2016 03:45:00 3.2 C 91 % 1.88 C
47 20-02-2016 03:50:00 3.3 C 91 % 1.98 C
48 20-02-2016 03:55:00 3.4 C 91 % 2.07 C
49 20-02-2016 04:00:00 3.6 C 90 % 2.12 C
50 20-02-2016 04:05:00 3.6 C 90 % 2.12 C
Sensor: Nr:Datum:Temp:Feuchte:Taupunkt:
Aussen-T/F 51 20-02-2016 04:10:00 3.7 C 90 % 2.22 C
52 20-02-2016 04:15:00 3.8 C 89 % 2.16 C
53 20-02-2016 04:20:00 3.9 C 89 % 2.26 C
54 20-02-2016 04:25:00 4.1 C 88 % 2.3 C
55 20-02-2016 04:30:00 4.2 C 89 % 2.55 C
56 20-02-2016 04:35:00 4.2 C 89 % 2.55 C
57 20-02-2016 04:40:00 4.2 C 90 % 2.71 C
58 20-02-2016 04:45:00 4.3 C 90 % 2.81 C
59 20-02-2016 04:50:00 4.2 C 90 % 2.71 C
60 20-02-2016 04:55:00 4.2 C 90 % 2.71 C
61 20-02-2016 05:00:00 4.2 C 91 % 2.87 C
62 20-02-2016 05:05:00 4.2 C 91 % 2.87 C
63 20-02-2016 05:10:00 4.2 C 91 % 2.87 C
64 20-02-2016 05:15:00 4.2 C 91 % 2.87 C
65 20-02-2016 05:20:00 4.2 C 91 % 2.87 C
66 20-02-2016 05:25:00 4.2 C 91 % 2.87 C
67 20-02-2016 05:30:00 4.2 C 91 % 2.87 C
68 20-02-2016 05:35:00 4.2 C 91 % 2.87 C
69 20-02-2016 05:40:00 4.2 C 91 % 2.87 C
70 20-02-2016 05:45:00 4.2 C 92 % 3.02 C
71 20-02-2016 05:50:00 4.2 C 92 % 3.02 C
72 20-02-2016 05:55:00 4.2 C 92 % 3.02 C
73 20-02-2016 06:00:00 4.1 C 92 % 2.92 C
74 20-02-2016 06:05:00 4.2 C 92 % 3.02 C
75 20-02-2016 06:10:00 4.2 C 92 % 3.02 C
Sensor: Nr:Datum:Temp:Feuchte:Taupunkt:
Aussen-T/F 76 20-02-2016 06:15:00 4.2 C 92 % 3.02 C
77 20-02-2016 06:20:00 4.2 C 92 % 3.02 C
78 20-02-2016 06:25:00 4.2 C 92 % 3.02 C
79 20-02-2016 06:30:00 4.2 C 92 % 3.02 C
80 20-02-2016 06:35:00 4.3 C 92 % 3.12 C
81 20-02-2016 06:40:00 4.3 C 92 % 3.12 C
82 20-02-2016 06:45:00 4.3 C 92 % 3.12 C
83 20-02-2016 06:50:00 4.3 C 91 % 2.96 C
84 20-02-2016 06:55:00 4.3 C 92 % 3.12 C
85 20-02-2016 07:00:00 4.3 C 91 % 2.96 C
86 20-02-2016 07:05:00 4.3 C 92 % 3.12 C
87 20-02-2016 07:10:00 4.3 C 92 % 3.12 C
88 20-02-2016 07:15:00 4.3 C 92 % 3.12 C
89 20-02-2016 07:20:00 4.3 C 92 % 3.12 C
90 20-02-2016 07:25:00 4.2 C 92 % 3.02 C
91 20-02-2016 07:30:00 4.2 C 92 % 3.02 C
92 20-02-2016 07:35:00 4.2 C 92 % 3.02 C
93 20-02-2016 07:40:00 4.2 C 92 % 3.02 C
94 20-02-2016 07:45:00 4.2 C 92 % 3.02 C
95 20-02-2016 07:50:00 4.2 C 92 % 3.02 C
96 20-02-2016 07:55:00 4.3 C 92 % 3.12 C
97 20-02-2016 08:00:00 4.3 C 92 % 3.12 C
98 20-02-2016 08:05:00 4.4 C 92 % 3.22 C
99 20-02-2016 08:10:00 4.4 C 92 % 3.22 C
100 20-02-2016 08:15:00 4.4 C 92 % 3.22 C
Sensor: Nr:Datum:Temp:Feuchte:Taupunkt:
Aussen-T/F 101 20-02-2016 08:20:00 4.4 C 92 % 3.22 C
102 20-02-2016 08:25:00 4.4 C 92 % 3.22 C
103 20-02-2016 08:30:00 4.5 C 92 % 3.32 C
104 20-02-2016 08:35:00 4.5 C 92 % 3.32 C
105 20-02-2016 08:40:00 4.6 C 92 % 3.42 C
106 20-02-2016 08:45:00 4.6 C 92 % 3.42 C
107 20-02-2016 08:50:00 4.7 C 92 % 3.51 C
108 20-02-2016 08:55:00 4.8 C 91 % 3.46 C
109 20-02-2016 09:00:00 4.9 C 91 % 3.56 C
110 20-02-2016 09:05:00 5 C 90 % 3.5 C
111 20-02-2016 09:10:00 5.1 C 90 % 3.6 C
112 20-02-2016 09:15:00 5.2 C 90 % 3.7 C
113 20-02-2016 09:20:00 5.3 C 90 % 3.8 C
114 20-02-2016 09:25:00 5.3 C 90 % 3.8 C
115 20-02-2016 09:30:00 5.4 C 89 % 3.74 C
116 20-02-2016 09:35:00 5.4 C 89 % 3.74 C
117 20-02-2016 09:40:00 5.4 C 89 % 3.74 C
118 20-02-2016 09:45:00 5.5 C 89 % 3.84 C
119 20-02-2016 09:50:00 5.5 C 89 % 3.84 C
120 20-02-2016 09:55:00 5.6 C 89 % 3.93 C
121 20-02-2016 10:00:00 5.7 C 89 % 4.03 C
122 20-02-2016 10:05:00 5.7 C 89 % 4.03 C
123 20-02-2016 10:10:00 5.8 C 89 % 4.13 C
124 20-02-2016 10:15:00 5.8 C 89 % 4.13 C
125 20-02-2016 10:20:00 5.9 C 89 % 4.23 C
Sensor: Nr:Datum:Temp:Feuchte:Taupunkt:
Aussen-T/F 126 20-02-2016 10:25:00 5.9 C 89 % 4.23 C
127 20-02-2016 10:30:00 6 C 89 % 4.33 C
128 20-02-2016 10:35:00 6.1 C 89 % 4.43 C
129 20-02-2016 10:40:00 6.2 C 89 % 4.53 C
130 20-02-2016 10:45:00 6.2 C 89 % 4.53 C
131 20-02-2016 10:50:00 6.3 C 88 % 4.46 C
132 20-02-2016 10:55:00 6.4 C 88 % 4.56 C
133 20-02-2016 11:00:00 6.4 C 89 % 4.72 C
134 20-02-2016 11:05:00 6.5 C 89 % 4.82 C
135 20-02-2016 11:10:00 6.6 C 89 % 4.92 C
136 20-02-2016 11:15:00 6.6 C 89 % 4.92 C
137 20-02-2016 11:20:00 6.7 C 89 % 5.02 C
138 20-02-2016 11:25:00 6.7 C 89 % 5.02 C
139 20-02-2016 11:30:00 6.7 C 89 % 5.02 C
140 20-02-2016 11:35:00 6.8 C 89 % 5.12 C
141 20-02-2016 11:40:00 6.8 C 89 % 5.12 C
142 20-02-2016 11:45:00 6.8 C 89 % 5.12 C
143 20-02-2016 11:50:00 6.8 C 89 % 5.12 C
144 20-02-2016 11:55:00 6.8 C 89 % 5.12 C
145 20-02-2016 12:00:00 6.8 C 90 % 5.28 C
146 20-02-2016 12:05:00 6.9 C 89 % 5.22 C
147 20-02-2016 12:10:00 6.9 C 89 % 5.22 C
148 20-02-2016 12:15:00 7 C 89 % 5.31 C
149 20-02-2016 12:20:00 7.1 C 89 % 5.41 C
150 20-02-2016 12:25:00 7.1 C 89 % 5.41 C
Sensor: Nr:Datum:Temp:Feuchte:Taupunkt:
Aussen-T/F 151 20-02-2016 12:30:00 7.2 C 89 % 5.51 C
152 20-02-2016 12:35:00 7.3 C 89 % 5.61 C
153 20-02-2016 12:40:00 7.3 C 89 % 5.61 C
154 20-02-2016 12:45:00 7.5 C 89 % 5.81 C
155 20-02-2016 12:50:00 7.6 C 89 % 5.91 C
156 20-02-2016 12:55:00 7.7 C 89 % 6 C
157 20-02-2016 13:00:00 7.7 C 88 % 5.84 C
158 20-02-2016 13:05:00 7.8 C 88 % 5.94 C
159 20-02-2016 13:10:00 7.8 C 88 % 5.94 C
160 20-02-2016 13:15:00 7.8 C 88 % 5.94 C
161 20-02-2016 13:20:00 7.8 C 89 % 6.1 C
162 20-02-2016 13:25:00 7.9 C 89 % 6.2 C
163 20-02-2016 13:30:00 7.9 C 89 % 6.2 C
164 20-02-2016 13:35:00 8 C 89 % 6.3 C
165 20-02-2016 13:40:00 8.1 C 89 % 6.4 C
166 20-02-2016 13:45:00 8.1 C 89 % 6.4 C
167 20-02-2016 13:50:00 8.2 C 89 % 6.5 C
168 20-02-2016 13:55:00 8.2 C 89 % 6.5 C
169 20-02-2016 14:00:00 8.2 C 89 % 6.5 C
170 20-02-2016 14:05:00 8.2 C 89 % 6.5 C
171 20-02-2016 14:10:00 8.3 C 89 % 6.6 C
172 20-02-2016 14:15:00 8.3 C 89 % 6.6 C
173 20-02-2016 14:20:00 8.4 C 89 % 6.7 C
174 20-02-2016 14:25:00 8.4 C 89 % 6.7 C
175 20-02-2016 14:30:00 8.5 C 89 % 6.79 C
Sensor: Nr:Datum:Temp:Feuchte:Taupunkt:
Aussen-T/F 176 20-02-2016 14:35:00 8.5 C 89 % 6.79 C
177 20-02-2016 14:40:00 8.5 C 89 % 6.79 C
178 20-02-2016 14:45:00 8.6 C 89 % 6.89 C
179 20-02-2016 14:50:00 8.6 C 89 % 6.89 C
180 20-02-2016 14:55:00 8.6 C 89 % 6.89 C
181 20-02-2016 15:00:00 8.7 C 90 % 7.15 C
182 20-02-2016 15:05:00 8.7 C 90 % 7.15 C
183 20-02-2016 15:10:00 8.7 C 90 % 7.15 C
184 20-02-2016 15:15:00 8.8 C 90 % 7.25 C
185 20-02-2016 15:20:00 8.8 C 90 % 7.25 C
186 20-02-2016 15:25:00 8.9 C 90 % 7.35 C
187 20-02-2016 15:30:00 8.9 C 90 % 7.35 C
188 20-02-2016 15:35:00 8.9 C 90 % 7.35 C
189 20-02-2016 15:40:00 9.1 C 90 % 7.55 C
190 20-02-2016 15:45:00 9.1 C 90 % 7.55 C
191 20-02-2016 15:50:00 9.2 C 90 % 7.65 C
192 20-02-2016 15:55:00 9.2 C 90 % 7.65 C
193 20-02-2016 16:00:00 9.3 C 90 % 7.75 C
194 20-02-2016 16:05:00 9.3 C 90 % 7.75 C
195 20-02-2016 16:10:00 9.4 C 90 % 7.85 C
196 20-02-2016 16:15:00 9.3 C 90 % 7.75 C
197 20-02-2016 16:20:00 9.3 C 91 % 7.91 C
198 20-02-2016 16:25:00 9.2 C 91 % 7.81 C
199 20-02-2016 16:30:00 9.2 C 92 % 7.97 C
200 20-02-2016 16:35:00 9.1 C 92 % 7.87 C
Sensor: Nr:Datum:Temp:Feuchte:Taupunkt:
Aussen-T/F 201 20-02-2016 16:40:00 9 C 93 % 7.93 C
202 20-02-2016 16:45:00 8.9 C 93 % 7.83 C
203 20-02-2016 16:50:00 8.9 C 93 % 7.83 C
204 20-02-2016 16:55:00 8.8 C 93 % 7.73 C
205 20-02-2016 17:00:00 8.8 C 93 % 7.73 C
206 20-02-2016 17:05:00 8.8 C 94 % 7.89 C
207 20-02-2016 17:10:00 8.8 C 94 % 7.89 C
208 20-02-2016 17:15:00 8.8 C 94 % 7.89 C
209 20-02-2016 17:20:00 8.7 C 94 % 7.79 C
210 20-02-2016 17:25:00 8.7 C 94 % 7.79 C
211 20-02-2016 17:30:00 8.7 C 94 % 7.79 C
212 20-02-2016 17:35:00 8.6 C 94 % 7.69 C
213 20-02-2016 17:40:00 8.6 C 94 % 7.69 C
214 20-02-2016 17:45:00 8.6 C 94 % 7.69 C
215 20-02-2016 17:50:00 8.6 C 94 % 7.69 C
216 20-02-2016 17:55:00 8.6 C 95 % 7.85 C
217 20-02-2016 18:00:00 8.6 C 95 % 7.85 C
218 20-02-2016 18:05:00 8.6 C 95 % 7.85 C
219 20-02-2016 18:10:00 8.7 C 95 % 7.94 C
220 20-02-2016 18:15:00 8.7 C 95 % 7.94 C
221 20-02-2016 18:20:00 8.7 C 95 % 7.94 C
222 20-02-2016 18:25:00 8.7 C 95 % 7.94 C
223 20-02-2016 18:30:00 8.7 C 95 % 7.94 C
224 20-02-2016 18:35:00 8.7 C 95 % 7.94 C
225 20-02-2016 18:40:00 8.7 C 95 % 7.94 C
Sensor: Nr:Datum:Temp:Feuchte:Taupunkt:
Aussen-T/F 226 20-02-2016 18:45:00 8.8 C 96 % 8.2 C
227 20-02-2016 18:50:00 8.8 C 96 % 8.2 C
228 20-02-2016 18:55:00 8.8 C 96 % 8.2 C
229 20-02-2016 19:00:00 8.9 C 96 % 8.3 C
230 20-02-2016 19:05:00 8.9 C 96 % 8.3 C
231 20-02-2016 19:10:00 8.9 C 95 % 8.14 C
232 20-02-2016 19:15:00 8.9 C 95 % 8.14 C
233 20-02-2016 19:20:00 8.9 C 95 % 8.14 C
234 20-02-2016 19:25:00 8.9 C 95 % 8.14 C
235 20-02-2016 19:30:00 9 C 95 % 8.24 C
236 20-02-2016 19:35:00 9.1 C 95 % 8.34 C
237 20-02-2016 19:40:00 9.1 C 95 % 8.34 C
238 20-02-2016 19:45:00 9.1 C 95 % 8.34 C
239 20-02-2016 19:50:00 9.2 C 95 % 8.44 C
240 20-02-2016 19:55:00 9.2 C 95 % 8.44 C
241 20-02-2016 20:00:00 9.2 C 95 % 8.44 C
242 20-02-2016 20:05:00 9.2 C 95 % 8.44 C
243 20-02-2016 20:10:00 9.2 C 95 % 8.44 C
244 20-02-2016 20:15:00 9.3 C 95 % 8.54 C
245 20-02-2016 20:20:00 9.3 C 95 % 8.54 C
246 20-02-2016 20:25:00 9.3 C 95 % 8.54 C
247 20-02-2016 20:30:00 9.3 C 95 % 8.54 C
248 20-02-2016 20:35:00 9.4 C 95 % 8.64 C
249 20-02-2016 20:40:00 9.4 C 95 % 8.64 C
250 20-02-2016 20:45:00 9.5 C 95 % 8.74 C
Sensor: Nr:Datum:Temp:Feuchte:Taupunkt:
Aussen-T/F 251 20-02-2016 20:50:00 9.6 C 95 % 8.84 C
252 20-02-2016 20:55:00 9.7 C 95 % 8.94 C
253 20-02-2016 21:00:00 9.7 C 95 % 8.94 C
254 20-02-2016 21:05:00 9.7 C 95 % 8.94 C
255 20-02-2016 21:10:00 9.7 C 95 % 8.94 C
256 20-02-2016 21:15:00 9.8 C 94 % 8.88 C
257 20-02-2016 21:20:00 9.8 C 94 % 8.88 C
258 20-02-2016 21:25:00 9.9 C 94 % 8.98 C
259 20-02-2016 21:30:00 9.9 C 94 % 8.98 C
260 20-02-2016 21:35:00 10 C 94 % 9.08 C
261 20-02-2016 21:40:00 10.1 C 94 % 9.18 C
262 20-02-2016 21:45:00 10.2 C 93 % 9.12 C
263 20-02-2016 21:50:00 10.2 C 93 % 9.12 C
264 20-02-2016 21:55:00 10.3 C 93 % 9.22 C
265 20-02-2016 22:00:00 10.3 C 93 % 9.22 C
266 20-02-2016 22:05:00 10.4 C 93 % 9.32 C
267 20-02-2016 22:10:00 10.4 C 92 % 9.16 C
268 20-02-2016 22:15:00 10.4 C 92 % 9.16 C
269 20-02-2016 22:20:00 10.5 C 92 % 9.26 C
270 20-02-2016 22:25:00 10.6 C 92 % 9.36 C
271 20-02-2016 22:30:00 10.6 C 92 % 9.36 C
272 20-02-2016 22:35:00 10.6 C 92 % 9.36 C
273 20-02-2016 22:40:00 10.6 C 92 % 9.36 C
274 20-02-2016 22:45:00 10.6 C 92 % 9.36 C
275 20-02-2016 22:50:00 10.6 C 93 % 9.52 C
Sensor: Nr:Datum:Temp:Feuchte:Taupunkt:
Aussen-T/F 276 20-02-2016 22:55:00 10.6 C 93 % 9.52 C
277 20-02-2016 23:00:00 10.6 C 93 % 9.52 C
278 20-02-2016 23:05:00 10.7 C 93 % 9.62 C
279 20-02-2016 23:10:00 10.7 C 93 % 9.62 C
280 20-02-2016 23:15:00 10.7 C 93 % 9.62 C
281 20-02-2016 23:20:00 10.7 C 93 % 9.62 C
282 20-02-2016 23:25:00 10.7 C 93 % 9.62 C
283 20-02-2016 23:30:00 10.7 C 93 % 9.62 C
284 20-02-2016 23:35:00 10.8 C 93 % 9.71 C
285 20-02-2016 23:40:00 10.8 C 93 % 9.71 C
286 20-02-2016 23:45:00 10.8 C 93 % 9.71 C
287 20-02-2016 23:50:00 10.8 C 93 % 9.71 C
288 20-02-2016 23:55:00 10.8 C 93 % 9.71 C

Legende:
   Min
   Max


Maximal/Minimal-Werte vom 20.02.2016 - 20.02.2016

Sensor Min Max Avg
Temp
(Aussen-T/F)
-0.4 °C
20-02-2016  00:00:00
10.8 °C
20-02-2016  23:35:00
6.42 °C
Feuchte
(Aussen-T/F)
88 %
20-02-2016  04:25:00
97 %
20-02-2016  00:30:00
92.19 %
Taupunkt
(Aussen-T/F)
-0.96 C
20-02-2016  00:00:00
9.71 C
20-02-2016  23:35:00
5.22 C

Die Daten stammen von einer Davis Vantage Pro 2 Wetter-Station und werden unter Linux mit der Software wview2wettercgi und aufbereitet. Alle Angaben erfolgen ohne Gewähr für ihre Vollständigkeit oder Richtigkeit.
Kontakt: Rainer Krienke krienke@uni-koblenz.de . Meine Webseiten an der Uni Koblenz oder privat.
Version: $Revision: 0.78 $